Time;durP1;ratioP1;P1;durP2;ratioP2;P2;SDS_P1;SDS_P2;PMS_P1;PMS_P2;Temp;Humidity;BMP_temperature;BMP_pressure;BME280_temperature;BME280_humidity;BME280_pressure;Samples;Min_cycle;Max_cycle;Signal;HPM_P1;HPM_P2
2021/12/31 00:01:57;;;;;;;55.65;27.82;;;;;;;4.63;100.00;99813.16;1725790;83;26266;-79
2021/12/31 00:04:24;;;;;;;54.80;25.92;;;;;;;4.65;100.00;99817.69;1725962;83;25605;-79
2021/12/31 00:06:50;;;;;;;47.13;25.12;;;;;;;4.70;100.00;99810.67;1725838;83;27317;-79
2021/12/31 00:09:16;;;;;;;50.28;26.23;;;;;;;4.71;100.00;99806.92;1725577;82;25656;-79
2021/12/31 00:11:42;;;;;;;52.75;25.95;;;;;;;4.75;100.00;99803.93;1725774;83;25401;-78
2021/12/31 00:14:09;;;;;;;51.73;26.33;;;;;;;4.77;100.00;99799.91;1725754;83;26191;-79
2021/12/31 00:16:35;;;;;;;46.28;25.48;;;;;;;4.81;100.00;99800.12;1699001;83;25664;-79
2021/12/31 00:19:01;;;;;;;48.90;25.45;;;;;;;4.84;100.00;99800.91;1727665;83;27333;-79
2021/12/31 00:21:36;;;;;;;46.98;24.47;;;;;;;4.87;100.00;99804.38;1727299;83;25620;-79
2021/12/31 00:23:57;;;;;;;44.42;24.02;;;;;;;4.91;100.00;99812.09;1725874;83;25602;-79
2021/12/31 00:26:23;;;;;;;46.75;24.37;;;;;;;4.97;100.00;99823.04;1727044;83;26353;-79
2021/12/31 00:28:49;;;;;;;45.43;24.40;;;;;;;5.02;100.00;99822.98;1727763;83;25416;-79
2021/12/31 00:31:16;;;;;;;42.03;23.30;;;;;;;5.05;100.00;99830.44;1727914;82;27317;-79
2021/12/31 00:33:42;;;;;;;45.98;22.93;;;;;;;5.11;100.00;99833.89;1727521;83;25272;-79
2021/12/31 00:36:09;;;;;;;43.52;23.15;;;;;;;5.17;100.00;99842.13;1727650;82;25233;-79
2021/12/31 00:38:35;;;;;;;40.80;21.15;;;;;;;5.21;100.00;99832.97;1727038;83;26523;-79
2021/12/31 00:41:02;;;;;;;37.58;21.97;;;;;;;5.25;100.00;99827.31;1726518;83;25615;-79
2021/12/31 00:43:28;;;;;;;42.15;22.80;;;;;;;5.29;100.00;99831.01;1725841;83;27408;-79
2021/12/31 00:45:54;;;;;;;38.90;21.25;;;;;;;5.33;100.00;99833.39;1725606;83;25621;-79
2021/12/31 00:48:21;;;;;;;41.23;21.52;;;;;;;5.38;100.00;99841.91;1725410;83;25153;-79
2021/12/31 00:50:48;;;;;;;34.38;20.05;;;;;;;5.41;100.00;99836.80;1725505;83;26183;-78
2021/12/31 00:53:14;;;;;;;34.40;19.62;;;;;;;5.46;100.00;99833.23;1724308;82;25641;-78
2021/12/31 00:55:41;;;;;;;34.78;19.35;;;;;;;5.51;100.00;99827.02;1724293;83;28030;-78
2021/12/31 00:58:07;;;;;;;35.25;19.35;;;;;;;5.56;100.00;99819.70;1724334;83;25537;-78
2021/12/31 01:00:34;;;;;;;33.78;18.35;;;;;;;5.62;100.00;99824.48;1724697;83;25136;-78
2021/12/31 01:03:01;;;;;;;33.70;18.70;;;;;;;5.67;100.00;99827.63;1724600;83;25713;-79
2021/12/31 01:05:28;;;;;;;36.88;18.92;;;;;;;5.72;100.00;99835.62;1724946;82;25489;-79
2021/12/31 01:07:54;;;;;;;33.90;17.67;;;;;;;5.81;100.00;99833.91;1724760;83;27236;-79
2021/12/31 01:10:23;;;;;;;33.33;17.80;;;;;;;5.84;100.00;99840.05;1724836;83;25729;-79
2021/12/31 01:12:51;;;;;;;35.17;17.20;;;;;;;5.91;100.00;99835.12;1694527;83;25502;-79
2021/12/31 01:15:22;;;;;;;33.65;18.02;;;;;;;5.97;100.00;99835.87;1724372;82;26498;-78
2021/12/31 01:20:21;;;;;;;35.30;18.12;;;;;;;6.08;100.00;99843.23;1696737;83;27894;-79
2021/12/31 01:22:48;;;;;;;36.60;18.25;;;;;;;6.12;100.00;99830.28;1724159;83;25592;-78
2021/12/31 01:25:15;;;;;;;32.50;18.50;;;;;;;6.16;100.00;99833.19;1695392;83;25701;-79
2021/12/31 01:27:43;;;;;;;32.63;18.00;;;;;;;6.20;100.00;99822.66;1724029;83;25563;-78
2021/12/31 01:30:16;;;;;;;34.55;20.52;;;;;;;6.21;100.00;99819.69;1724119;83;25539;-78
2021/12/31 01:32:45;;;;;;;38.45;18.55;;;;;;;6.24;100.00;99823.14;1704153;82;27899;-78
2021/12/31 01:35:13;;;;;;;41.28;18.40;;;;;;;6.25;100.00;99823.41;1702386;84;25632;-78
2021/12/31 01:37:40;;;;;;;34.18;18.67;;;;;;;6.27;100.00;99826.59;1676488;84;25233;-77
2021/12/31 01:40:10;;;;;;;36.98;18.85;;;;;;;6.28;100.00;99833.57;1702428;84;25699;-77
2021/12/31 01:42:37;;;;;;;35.83;19.27;;;;;;;6.29;100.00;99832.47;1702533;84;25587;-78
2021/12/31 01:45:18;;;;;;;31.55;18.62;;;;;;;6.30;100.00;99834.08;1702413;84;27324;-77
2021/12/31 01:47:56;;;;;;;33.00;18.30;;;;;;;6.29;100.00;99824.41;1702260;84;25625;-76
2021/12/31 01:50:13;;;;;;;34.53;18.75;;;;;;;6.30;100.00;99827.36;1704042;83;25559;-78
2021/12/31 01:52:40;;;;;;;32.80;19.37;;;;;;;6.29;100.00;99827.09;1718020;82;25601;-78
2021/12/31 01:55:10;;;;;;;37.20;18.57;;;;;;;6.31;100.00;99830.28;1727235;83;25570;-77
2021/12/31 01:57:40;;;;;;;34.92;17.87;;;;;;;6.31;100.00;99837.55;1727276;83;27313;-77
2021/12/31 02:00:08;;;;;;;;;;;;;;;6.29;100.00;99824.41;1729797;83;25828;-77
2021/12/31 02:02:36;;;;;;;36.25;18.00;;;;;;;6.30;100.00;99835.94;1727272;82;25460;-77
2021/12/31 02:05:05;;;;;;;34.18;17.62;;;;;;;6.29;100.00;99833.80;1727224;83;25639;-77
2021/12/31 02:07:32;;;;;;;36.37;18.00;;;;;;;6.28;100.00;99842.97;1727226;82;25729;-76
2021/12/31 02:09:58;;;;;;;32.30;18.02;;;;;;;6.27;100.00;99837.89;1727247;83;27424;-76
2021/12/31 02:12:25;;;;;;;29.87;16.93;;;;;;;6.27;100.00;99840.58;1727144;83;25597;-77
2021/12/31 02:14:53;;;;;;;33.10;17.62;;;;;;;6.26;100.00;99835.73;1727223;83;25549;-77
2021/12/31 02:17:20;;;;;;;31.95;17.70;;;;;;;6.26;100.00;99830.91;1727215;83;26410;-77
2021/12/31 02:20:06;;;;;;;33.05;18.05;;;;;;;6.27;100.00;99823.91;1727280;83;25609;-77
2021/12/31 02:22:38;;;;;;;34.60;17.23;;;;;;;6.27;100.00;99821.22;1727283;83;27312;-77
2021/12/31 02:25:07;;;;;;;32.23;18.20;;;;;;;6.28;100.00;99821.48;1727147;83;25631;-76
2021/12/31 02:27:40;;;;;;;33.00;17.47;;;;;;;6.29;100.00;99819.03;1727462;82;25619;-76
2021/12/31 02:30:10;;;;;;;31.25;16.57;;;;;;;6.29;100.00;99816.34;1727076;82;25612;-76
2021/12/31 02:32:37;;;;;;;;;;;;;;;6.29;100.00;99815.56;1694916;81;25490;-77
2021/12/31 02:35:06;;;;;;;31.35;16.17;;;;;;;6.31;100.00;99818.75;1760252;81;27378;-77
2021/12/31 02:37:33;;;;;;;31.20;15.90;;;;;;;6.30;100.00;99820.64;1760407;81;25545;-77
2021/12/31 02:40:04;;;;;;;30.92;16.90;;;;;;;6.33;100.00;99825.96;1760597;81;25653;-77
2021/12/31 02:42:30;;;;;;;34.15;20.50;;;;;;;6.34;100.00;99820.85;1760553;81;26177;-77
2021/12/31 02:44:57;;;;;;;28.87;15.93;;;;;;;6.35;100.00;99835.86;1760722;81;25438;-77
2021/12/31 02:47:24;;;;;;;30.32;16.27;;;;;;;6.39;100.00;99834.77;1760237;81;27912;-77
2021/12/31 02:49:50;;;;;;;31.17;17.48;;;;;;;6.43;100.00;99834.42;1760214;81;25600;-77
2021/12/31 02:52:17;;;;;;;29.52;16.30;;;;;;;6.45;100.00;99828.20;1695390;83;25660;-77
2021/12/31 02:54:48;;;;;;;29.65;15.95;;;;;;;6.48;100.00;99835.68;1724039;83;26177;-77
2021/12/31 02:57:16;;;;;;;25.72;14.80;;;;;;;6.50;100.00;99824.09;1732510;82;25606;-77
2021/12/31 02:59:45;;;;;;;30.08;17.42;;;;;;;6.54;100.00;99823.78;1732419;82;27394;-76
2021/12/31 03:02:12;;;;;;;27.70;15.98;;;;;;;6.56;100.00;99824.28;1732418;82;25566;-77
2021/12/31 03:04:40;;;;;;;31.10;15.45;;;;;;;6.58;100.00;99821.30;1704077;82;25696;-77
2021/12/31 03:07:10;;;;;;;29.75;16.48;;;;;;;6.59;100.00;99818.84;1732360;82;25660;-77
2021/12/31 03:09:43;;;;;;;26.20;15.30;;;;;;;6.60;100.00;99825.83;1706014;82;33441;-77
2021/12/31 03:12:09;;;;;;;25.32;14.68;;;;;;;6.61;100.00;99826.09;1731911;82;27912;-76
2021/12/31 03:14:38;;;;;;;29.00;16.25;;;;;;;6.60;100.00;99831.98;1732304;82;25374;-76
2021/12/31 03:17:05;;;;;;;28.83;14.65;;;;;;;6.61;100.00;99843.00;1705761;82;25426;-77
2021/12/31 03:19:32;;;;;;;26.82;15.35;;;;;;;6.62;100.00;99831.14;1732384;82;25636;-77
2021/12/31 03:21:59;;;;;;;28.52;16.30;;;;;;;6.63;100.00;99819.88;1732455;82;25465;-77
2021/12/31 03:24:25;;;;;;;27.82;15.43;;;;;;;6.63;100.00;99815.28;1732454;82;27520;-78
2021/12/31 03:26:51;;;;;;;34.33;21.07;;;;;;;6.63;100.00;99805.88;1732400;81;25606;-77
2021/12/31 03:29:18;;;;;;;28.20;14.93;;;;;;;6.65;100.00;99812.30;1732468;82;25387;-77
2021/12/31 03:31:44;;;;;;;32.30;19.30;;;;;;;6.67;100.00;99821.66;1732316;82;25678;-77
2021/12/31 03:34:13;;;;;;;26.10;16.90;;;;;;;6.68;100.00;99820.58;1732497;82;25452;-77
2021/12/31 03:36:40;;;;;;;28.47;18.30;;;;;;;6.69;100.00;99818.16;1680946;82;27904;-77
2021/12/31 03:39:06;;;;;;;35.92;21.55;;;;;;;6.70;100.00;99835.86;1732428;82;25743;-77
2021/12/31 03:41:32;;;;;;;28.80;15.35;;;;;;;6.73;100.00;99847.92;1732474;82;25533;-77
2021/12/31 03:43:59;;;;;;;25.48;15.75;;;;;;;6.72;100.00;99841.77;1704169;82;25582;-77
2021/12/31 03:46:25;;;;;;;29.30;15.93;;;;;;;6.77;100.00;99843.55;1760326;81;25398;-77
2021/12/31 03:48:52;;;;;;;25.08;14.95;;;;;;;6.78;100.00;99834.40;1760213;81;27941;-77
2021/12/31 03:51:19;;;;;;;27.73;15.93;;;;;;;6.79;100.00;99841.35;1760126;81;25598;-77
2021/12/31 03:53:45;;;;;;;28.10;15.85;;;;;;;6.80;100.00;99834.89;1760408;81;25431;-77
2021/12/31 03:56:12;;;;;;;26.35;15.08;;;;;;;6.81;100.00;99833.00;1732902;81;25803;-77
2021/12/31 03:58:38;;;;;;;29.25;15.60;;;;;;;6.81;100.00;99835.16;1760482;81;25608;-77
2021/12/31 04:01:04;;;;;;;27.37;14.35;;;;;;;6.82;100.00;99833.27;1760284;81;27397;-77
2021/12/31 04:03:31;;;;;;;23.35;13.83;;;;;;;6.82;100.00;99821.16;1760180;81;25594;-77
2021/12/31 04:05:58;;;;;;;23.95;14.10;;;;;;;6.82;100.00;99829.23;1760244;81;25525;-77
2021/12/31 04:08:24;;;;;;;29.52;14.65;;;;;;;6.82;100.00;99830.02;1760314;81;25628;-77
2021/12/31 04:10:51;;;;;;;23.47;13.95;;;;;;;6.84;100.00;99838.58;1760382;81;25601;-77
2021/12/31 04:13:17;;;;;;;21.97;13.55;;;;;;;6.87;100.00;99834.52;1760348;81;28054;-77
2021/12/31 04:15:44;;;;;;;25.57;15.08;;;;;;;6.88;100.00;99839.61;1730914;81;25749;-77
2021/12/31 04:18:11;;;;;;;29.35;15.63;;;;;;;6.89;100.00;99839.84;1760354;81;25427;-76
2021/12/31 04:20:41;;;;;;;30.62;16.12;;;;;;;6.91;100.00;99828.27;1760254;81;26187;-76
2021/12/31 04:23:28;;;;;;;25.88;14.20;;;;;;;6.92;100.00;99836.56;1732769;81;25399;-76
2021/12/31 04:25:44;;;;;;;24.20;13.60;;;;;;;6.96;100.00;99831.95;1757950;81;27343;-76
2021/12/31 04:28:10;;;;;;;24.85;13.25;;;;;;;6.98;100.00;99825.19;1706855;81;25745;-76
2021/12/31 04:30:37;;;;;;;22.07;12.40;;;;;;;6.99;100.00;99836.18;1760154;81;25482;-76
2021/12/31 04:33:04;;;;;;;25.77;13.78;;;;;;;7.01;100.00;99848.78;1760046;81;25617;-76
2021/12/31 04:35:30;;;;;;;19.27;11.78;;;;;;;7.03;100.00;99850.65;1760189;81;25601;-76
2021/12/31 04:37:56;;;;;;;20.23;12.10;;;;;;;7.06;100.00;99840.63;1724002;83;27384;-76
2021/12/31 04:40:23;;;;;;;21.42;11.88;;;;;;;7.08;100.00;99836.30;1723962;83;25561;-76
2021/12/31 04:42:50;;;;;;;22.90;12.30;;;;;;;7.11;100.00;99838.39;1732375;82;25372;-76
2021/12/31 04:45:17;;;;;;;22.17;11.83;;;;;;;7.14;100.00;99844.53;1732310;82;25766;-76
2021/12/31 04:47:44;;;;;;;23.60;11.57;;;;;;;7.18;100.00;99842.83;1732418;82;25546;-76
2021/12/31 04:50:11;;;;;;;20.77;11.88;;;;;;;7.19;100.00;99843.66;1732292;82;27377;-76
2021/12/31 04:52:38;;;;;;;22.13;11.43;;;;;;;7.21;100.00;99845.48;1705610;82;25484;-76
2021/12/31 04:55:07;;;;;;;21.05;11.50;;;;;;;7.23;100.00;99852.16;1732378;82;25550;-76
2021/12/31 04:57:33;;;;;;;;;;;;;;;7.26;100.00;99858.29;1704697;82;25683;-76
2021/12/31 05:00:00;;;;;;;22.35;11.70;;;;;;;7.28;100.00;99862.82;1705691;82;25638;-76
2021/12/31 05:02:26;;;;;;;20.12;10.85;;;;;;;7.29;100.00;99852.88;1732355;82;27305;-76
2021/12/31 05:04:53;;;;;;;20.60;11.97;;;;;;;7.31;100.00;99862.00;1733391;82;25594;-76
2021/12/31 05:07:19;;;;;;;20.30;11.25;;;;;;;7.34;100.00;99862.73;1733382;82;25526;-76
2021/12/31 05:09:45;;;;;;;18.65;10.93;;;;;;;7.37;100.00;99861.61;1733539;81;26299;-76
2021/12/31 05:12:15;;;;;;;21.02;11.10;;;;;;;7.41;100.00;99862.60;1761237;81;25552;-76
2021/12/31 05:14:41;;;;;;;20.75;10.60;;;;;;;7.45;100.00;99861.45;1760843;81;27395;-74
2021/12/31 05:17:07;;;;;;;24.92;13.62;;;;;;;7.49;100.00;99859.75;1761085;81;25728;-75
2021/12/31 05:19:34;;;;;;;23.00;11.95;;;;;;;7.53;100.00;99846.52;1732304;81;25629;-75
2021/12/31 05:22:00;;;;;;;21.15;11.55;;;;;;;7.57;100.00;99849.63;1760921;81;25554;-76
2021/12/31 05:24:26;;;;;;;21.57;10.90;;;;;;;7.59;100.00;99854.72;1760509;81;25635;-76
2021/12/31 05:26:53;;;;;;;20.02;10.50;;;;;;;7.60;100.00;99853.64;1724193;83;27295;-76
2021/12/31 05:29:19;;;;;;;21.45;12.33;;;;;;;7.64;100.00;99849.23;1724157;82;25468;-76
2021/12/31 05:31:46;;;;;;;20.40;11.80;;;;;;;7.69;100.00;99849.69;1732492;82;25572;-76
2021/12/31 05:34:12;;;;;;;23.00;12.43;;;;;;;7.73;100.00;99846.63;1722952;81;26178;-76
2021/12/31 05:36:39;;;;;;;21.93;11.90;;;;;;;7.76;100.00;99846.05;1702909;84;25414;-76
2021/12/31 05:39:05;;;;;;;26.07;12.25;;;;;;;7.78;100.00;99856.77;1728799;83;28113;-77
2021/12/31 05:41:32;;;;;;;24.85;12.33;;;;;;;7.79;100.00;99860.25;1703954;83;25598;-76
2021/12/31 05:43:59;;;;;;;20.77;11.18;;;;;;;7.79;100.00;99855.66;1721784;83;25553;-76
2021/12/31 05:46:25;;;;;;;20.37;11.12;;;;;;;7.81;100.00;99849.42;1702883;84;25625;-76
2021/12/31 05:48:51;;;;;;;20.75;11.00;;;;;;;7.85;100.00;99855.02;1728812;83;25445;-76
2021/12/31 05:51:18;;;;;;;20.52;10.35;;;;;;;7.88;100.00;99846.32;1728839;83;27959;-76
2021/12/31 05:53:44;;;;;;;21.45;10.32;;;;;;;7.90;100.00;99854.91;1721755;83;25626;-76
2021/12/31 05:56:10;;;;;;;18.77;10.50;;;;;;;7.90;100.00;99848.19;1702887;84;25487;-76
2021/12/31 05:58:37;;;;;;;18.60;11.40;;;;;;;7.93;100.00;99846.77;1728712;83;26334;-76
2021/12/31 06:01:03;;;;;;;17.52;10.15;;;;;;;7.95;100.00;99847.26;1728858;83;25664;-76
2021/12/31 06:03:30;;;;;;;19.30;11.00;;;;;;;7.96;100.00;99844.27;1721810;83;27365;-76
2021/12/31 06:05:57;;;;;;;23.87;11.00;;;;;;;7.97;100.00;99845.09;1678828;84;25504;-76
2021/12/31 06:08:23;;;;;;;19.50;10.78;;;;;;;7.98;100.00;99842.06;1728792;83;25557;-76
2021/12/31 06:10:49;;;;;;;20.60;11.15;;;;;;;8.01;100.00;99837.98;1728709;83;25690;-76
2021/12/31 06:13:16;;;;;;;19.82;10.80;;;;;;;8.03;100.00;99836.56;1698000;83;25634;-76
2021/12/31 06:15:42;;;;;;;19.50;11.15;;;;;;;8.06;100.00;99840.56;1702847;84;27511;-77
2021/12/31 06:18:10;;;;;;;17.48;11.20;;;;;;;8.09;100.00;99841.84;1728668;83;25546;-76
2021/12/31 06:20:37;;;;;;;20.12;11.78;;;;;;;8.09;100.00;99835.92;1704045;83;25585;-76
2021/12/31 06:23:03;;;;;;;20.50;11.83;;;;;;;8.10;100.00;99834.02;1721811;83;25635;-76
2021/12/31 06:25:30;;;;;;;20.55;12.00;;;;;;;8.13;100.00;99843.63;1702967;84;25478;-76
2021/12/31 06:27:56;;;;;;;21.27;11.83;;;;;;;8.15;100.00;99842.77;1728826;83;27367;-76
2021/12/31 06:30:23;;;;;;;19.07;11.48;;;;;;;8.17;100.00;99840.59;1702636;83;25593;-76
2021/12/31 06:32:49;;;;;;;19.35;10.78;;;;;;;8.18;100.00;99846.22;1721785;81;25536;-76
2021/12/31 06:35:15;;;;;;;24.98;11.80;;;;;;;8.21;100.00;99847.52;1702817;84;25622;-76
2021/12/31 06:37:42;;;;;;;22.20;12.37;;;;;;;8.23;100.00;99850.14;1728839;83;25617;-76
2021/12/31 06:40:11;;;;;;;21.60;12.55;;;;;;;8.25;100.00;99845.80;1728807;82;27351;-77
2021/12/31 06:42:38;;;;;;;20.60;11.90;;;;;;;8.27;100.00;99854.92;1721795;83;25635;-76
2021/12/31 06:45:05;;;;;;;18.62;10.75;;;;;;;8.27;100.00;99858.41;1702882;84;25632;-76
2021/12/31 06:47:32;;;;;;;20.82;12.10;;;;;;;8.28;100.00;99851.94;1702812;83;26191;-76
2021/12/31 06:49:59;;;;;;;18.90;11.40;;;;;;;8.30;100.00;99844.90;1728755;83;25462;-76
2021/12/31 06:52:26;;;;;;;19.25;11.83;;;;;;;8.31;100.00;99847.82;1697715;83;27207;-76
2021/12/31 06:54:52;;;;;;;21.02;11.60;;;;;;;8.31;100.00;99845.12;1728663;83;25639;-76
2021/12/31 06:57:19;;;;;;;44.55;25.62;;;;;;;8.31;100.00;99843.25;1721755;83;25589;-76
2021/12/31 06:59:45;;;;;;;19.27;11.65;;;;;;;8.33;100.00;99844.30;1702804;84;25599;-78
2021/12/31 07:02:12;;;;;;;17.30;11.33;;;;;;;8.33;100.00;99840.25;1728793;83;25526;-77
2021/12/31 07:04:38;;;;;;;20.05;11.70;;;;;;;8.34;100.00;99841.83;1704126;83;27335;-76
2021/12/31 07:07:05;;;;;;;21.40;12.03;;;;;;;8.35;100.00;99850.17;1721728;83;25616;-77
2021/12/31 07:09:31;;;;;;;17.15;11.12;;;;;;;8.36;100.00;99847.70;1703535;84;25221;-77
2021/12/31 07:12:00;;;;;;;17.20;11.20;;;;;;;8.35;100.00;99857.69;1729179;83;26260;-77
2021/12/31 07:14:26;;;;;;;17.92;11.38;;;;;;;8.36;100.00;99853.09;1728788;83;25614;-78
2021/12/31 07:16:52;;;;;;;15.98;10.80;;;;;;;8.36;100.00;99859.83;1699097;83;27939;-78
2021/12/31 07:19:19;;;;;;;18.45;10.65;;;;;;;8.36;100.00;99862.52;1702774;84;25574;-77
2021/12/31 07:21:45;;;;;;;14.58;9.50;;;;;;;8.39;100.00;99856.53;1728763;82;25437;-77
2021/12/31 07:24:12;;;;;;;13.95;9.23;;;;;;;8.40;100.00;99858.14;1728702;83;25631;-77
2021/12/31 07:26:38;;;;;;;14.75;9.43;;;;;;;8.41;100.00;99863.75;1721736;83;25622;-77
2021/12/31 07:29:05;;;;;;;12.78;8.48;;;;;;;8.41;100.00;99863.75;1704012;83;27992;-77
2021/12/31 07:31:31;;;;;;;9.95;7.50;;;;;;;8.44;100.00;99861.83;1697546;83;25802;-77
2021/12/31 07:33:58;;;;;;;12.82;7.25;;;;;;;8.46;100.00;99870.97;1704193;83;25366;-77
2021/12/31 07:36:26;;;;;;;11.80;7.42;;;;;;;8.48;100.00;99872.27;1723974;83;25629;-77
2021/12/31 07:39:06;;;;;;;11.88;7.78;;;;;;;8.51;100.00;99877.59;1724026;83;25652;-78
2021/12/31 07:41:30;;;;;;;13.90;7.10;;;;;;;8.53;100.00;99872.68;1732355;82;28011;-77
2021/12/31 07:43:57;;;;;;;9.30;7.03;;;;;;;8.54;100.00;99874.29;1732388;82;25526;-76
2021/12/31 07:46:23;;;;;;;10.20;5.97;;;;;;;8.55;100.00;99876.68;1732493;81;25622;-76
2021/12/31 07:48:50;;;;;;;9.68;6.87;;;;;;;8.57;100.00;99873.69;1732439;82;25656;-76
2021/12/31 07:51:17;;;;;;;7.42;5.87;;;;;;;8.58;100.00;99876.61;1732493;82;25436;-76
2021/12/31 07:53:44;;;;;;;9.08;5.67;;;;;;;8.60;100.00;99878.47;1732294;82;27360;-76
2021/12/31 07:56:10;;;;;;;10.23;6.08;;;;;;;8.60;100.00;99875.21;1732244;81;25457;-76
2021/12/31 07:58:37;;;;;;;7.25;5.15;;;;;;;8.62;100.00;99877.61;1732364;82;25410;-76
2021/12/31 08:01:03;;;;;;;7.78;5.30;;;;;;;8.64;100.00;99875.95;1732321;82;25722;-76
2021/12/31 08:03:31;;;;;;;12.60;8.20;;;;;;;8.65;100.00;99871.61;1732304;81;25400;-75
2021/12/31 08:05:57;;;;;;;10.40;5.40;;;;;;;8.66;100.00;99867.00;1732332;82;27951;-75
2021/12/31 08:08:24;;;;;;;9.35;6.00;;;;;;;8.69;100.00;99870.44;1705351;82;25749;-75
2021/12/31 08:10:50;;;;;;;9.25;6.37;;;;;;;8.71;100.00;99867.67;1732449;82;25541;-75
2021/12/31 08:13:16;;;;;;;8.08;5.45;;;;;;;8.73;100.00;99868.71;1732224;82;26489;-75
2021/12/31 08:15:43;;;;;;;9.30;5.92;;;;;;;8.74;100.00;99868.41;1732315;81;25696;-75
2021/12/31 08:18:10;;;;;;;6.05;5.05;;;;;;;8.77;100.00;99877.23;1732279;82;27320;-75
2021/12/31 08:20:38;;;;;;;7.35;5.53;;;;;;;8.80;100.00;99871.77;1732374;82;25644;-76
2021/12/31 08:23:09;;;;;;;10.45;6.37;;;;;;;8.82;100.00;99871.47;1732327;82;25645;-75
2021/12/31 08:25:41;;;;;;;7.90;5.85;;;;;;;8.82;100.00;99879.02;1732231;82;25672;-75
2021/12/31 08:28:08;;;;;;;9.00;6.15;;;;;;;8.83;100.00;99865.77;1732412;82;25568;-75
2021/12/31 08:30:34;;;;;;;9.45;5.97;;;;;;;8.82;100.00;99870.94;1732369;82;27926;-75
2021/12/31 08:33:01;;;;;;;9.05;5.95;;;;;;;8.83;100.00;99863.63;1732275;82;25444;-75
2021/12/31 08:35:28;;;;;;;8.20;5.80;;;;;;;8.82;100.00;99868.23;1732378;81;25545;-75
2021/12/31 08:37:55;;;;;;;7.10;4.92;;;;;;;8.84;100.00;99866.59;1705578;82;25558;-75
2021/12/31 08:40:22;;;;;;;7.55;5.35;;;;;;;8.84;100.00;99867.38;1732400;82;25669;-76
2021/12/31 08:42:49;;;;;;;5.05;4.50;;;;;;;8.85;100.00;99870.30;1732394;82;27316;-75
2021/12/31 08:45:16;;;;;;;8.83;5.87;;;;;;;8.87;100.00;99874.04;1732225;82;25564;-76
2021/12/31 08:47:42;;;;;;;9.48;6.42;;;;;;;8.86;100.00;99869.20;1732354;81;25533;-74
2021/12/31 08:50:09;;;;;;;7.17;4.87;;;;;;;8.86;100.00;99871.11;1732254;82;25617;-75
2021/12/31 08:52:36;;;;;;;6.55;4.17;;;;;;;8.88;100.00;99868.91;1732333;82;25661;-74
2021/12/31 08:55:04;;;;;;;6.75;4.97;;;;;;;8.87;100.00;99870.81;1732241;81;27966;-74
2021/12/31 08:57:31;;;;;;;6.10;4.73;;;;;;;8.87;100.00;99865.41;1682477;82;25652;-74
2021/12/31 08:59:57;;;;;;;6.90;4.70;;;;;;;8.90;100.00;99870.73;1705396;82;25635;-74
2021/12/31 09:02:24;;;;;;;7.12;4.45;;;;;;;8.91;100.00;99862.89;1705503;82;25555;-75
2021/12/31 09:04:50;;;;;;;6.33;4.37;;;;;;;8.91;100.00;99866.38;1732313;81;25564;-75
2021/12/31 09:07:17;;;;;;;4.70;3.75;;;;;;;8.92;100.00;99861.24;1732293;82;27325;-75
2021/12/31 09:09:43;;;;;;;3.85;3.45;;;;;;;8.91;100.00;99860.98;1732214;82;25616;-76
2021/12/31 09:12:09;;;;;;;6.33;4.28;;;;;;;8.92;100.00;99857.20;1732299;82;25372;-75
2021/12/31 09:14:36;;;;;;;6.05;4.10;;;;;;;8.93;100.00;99857.42;1732022;82;25645;-75
2021/12/31 09:17:04;;;;;;;5.00;3.77;;;;;;;8.94;100.00;99859.03;1732363;81;25470;-75
2021/12/31 09:19:30;;;;;;;6.85;4.00;;;;;;;8.96;100.00;99850.06;1732354;82;28049;-75
2021/12/31 09:21:57;;;;;;;3.83;3.10;;;;;;;9.02;100.00;99860.73;1732192;82;25968;-75
2021/12/31 09:24:24;;;;;;;4.03;3.25;;;;;;;9.03;100.00;99852.33;1732432;82;25392;-75
2021/12/31 09:26:51;;;;;;;4.70;3.25;;;;;;;9.04;100.00;99851.77;1732300;82;26351;-75
2021/12/31 09:29:18;;;;;;;4.53;3.42;;;;;;;9.05;100.00;99845.28;1732355;81;25634;-75
2021/12/31 09:31:45;;;;;;;4.30;3.20;;;;;;;9.07;100.00;99853.85;1732391;81;27336;-75
2021/12/31 09:34:12;;;;;;;5.10;3.52;;;;;;;9.08;100.00;99851.41;1737808;81;25625;-74
2021/12/31 09:36:38;;;;;;;4.92;3.42;;;;;;;9.08;100.00;99848.71;1747738;82;25403;-74
2021/12/31 09:39:05;;;;;;;4.55;3.25;;;;;;;9.10;100.00;99851.89;1748018;82;26232;-74
2021/12/31 09:41:31;;;;;;;6.83;3.65;;;;;;;9.10;100.00;99850.55;1748162;82;25466;-75
2021/12/31 09:43:57;;;;;;;4.72;2.98;;;;;;;9.12;100.00;99847.77;1748040;82;27333;-76
2021/12/31 09:46:24;;;;;;;4.58;3.20;;;;;;;9.14;100.00;99843.41;1748062;82;25632;-74
2021/12/31 09:48:50;;;;;;;3.85;2.90;;;;;;;9.14;100.00;99850.97;1748093;81;25443;-74
2021/12/31 09:51:18;;;;;;;5.15;3.35;;;;;;;9.14;100.00;99834.78;1748105;82;26278;-75
2021/12/31 09:53:46;;;;;;;4.78;3.25;;;;;;;9.15;100.00;99840.41;1748121;82;25398;-74
2021/12/31 09:56:15;;;;;;;4.15;3.50;;;;;;;9.16;100.00;99839.31;1748176;82;27324;-74
2021/12/31 09:58:42;;;;;;;4.28;3.37;;;;;;;9.18;100.00;99829.56;1748223;82;25565;-75
2021/12/31 10:01:09;;;;;;;4.60;3.35;;;;;;;9.19;100.00;99827.64;1748304;82;25548;-75
2021/12/31 10:03:38;;;;;;;11.65;6.30;;;;;;;9.19;100.00;99827.08;1748166;82;25601;-74
2021/12/31 10:06:10;;;;;;;4.58;2.92;;;;;;;9.20;100.00;99825.98;1748278;81;25426;-75
2021/12/31 10:08:46;;;;;;;3.35;2.40;;;;;;;9.23;100.00;99836.70;1748293;82;27330;-75
2021/12/31 10:11:20;;;;;;;6.87;3.30;;;;;;;9.23;100.00;99846.96;1748227;82;25657;-74
2021/12/31 10:13:57;;;;;;;3.72;2.98;;;;;;;9.23;100.00;99834.81;1747717;82;25403;-74
2021/12/31 10:16:37;;;;;;;5.53;3.30;;;;;;;9.26;100.00;99835.55;1748218;82;25633;-74
2021/12/31 10:19:19;;;;;;;3.08;2.55;;;;;;;9.27;100.00;99804.73;1748306;82;25470;-74
2021/12/31 10:21:51;;;;;;;3.98;2.85;;;;;;;9.28;100.00;99808.23;1748383;82;27924;-73
2021/12/31 10:24:32;;;;;;;4.70;3.20;;;;;;;9.31;100.00;99810.30;1748136;82;25623;-74
2021/12/31 10:27:04;;;;;;;7.70;3.35;;;;;;;9.37;100.00;99813.68;1745974;82;25663;-72
2021/12/31 10:29:31;;;;;;;3.95;3.52;;;;;;;9.39;100.00;99816.30;1724855;82;26052;-72
2021/12/31 10:31:58;;;;;;;4.00;3.60;;;;;;;9.43;100.00;99813.77;1748283;82;25555;-73
2021/12/31 10:34:37;;;;;;;5.08;3.77;;;;;;;9.45;100.00;99813.70;1742086;81;27341;-73
2021/12/31 10:37:22;;;;;;;5.58;4.42;;;;;;;9.48;100.00;99812.27;1732481;82;30103;-73
2021/12/31 10:39:59;;;;;;;4.70;4.20;;;;;;;9.50;100.00;99806.00;1723804;83;25586;-73
2021/12/31 10:42:32;;;;;;;9.15;5.45;;;;;;;9.51;100.00;99804.90;1712461;83;25801;-72
2021/12/31 10:45:01;;;;;;;7.87;5.58;;;;;;;9.51;100.00;99808.95;1659398;85;25751;-73
2021/12/31 10:47:42;;;;;;;8.25;6.42;;;;;;;9.52;100.00;99800.55;1675134;85;27352;-73
2021/12/31 10:50:12;;;;;;;7.28;6.28;;;;;;;9.53;100.00;99805.38;1674869;85;25717;-71
2021/12/31 10:53:02;;;;;;;8.38;6.90;;;;;;;9.52;100.00;99805.94;1644687;85;25847;-71
2021/12/31 10:55:30;;;;;;;14.68;9.83;;;;;;;9.54;100.00;99798.88;1674756;85;25792;-71
2021/12/31 10:57:59;;;;;;;;;;;;;;;9.56;100.00;99798.57;1673152;82;26859;-72
2021/12/31 11:00:37;;;;;;;8.90;7.67;;;;;;;9.57;100.00;99792.05;1688458;84;27373;-72
2021/12/31 11:03:05;;;;;;;11.48;9.25;;;;;;;9.58;100.00;99792.30;1701950;84;25820;-72
2021/12/31 11:05:32;;;;;;;11.30;8.58;;;;;;;9.57;100.00;99794.20;1723075;81;25701;-72
2021/12/31 11:08:07;;;;;;;10.70;8.83;;;;;;;9.57;100.00;99793.39;1760640;81;26589;-72
2021/12/31 11:10:37;;;;;;;9.98;8.28;;;;;;;9.58;100.00;99794.43;1762243;81;26032;-73
2021/12/31 11:13:19;;;;;;;11.70;9.58;;;;;;;9.59;100.00;99785.23;1762117;80;27390;-73
2021/12/31 11:15:54;;;;;;;10.60;9.10;;;;;;;9.60;100.00;99797.61;1762242;80;25689;-72
2021/12/31 11:18:23;;;;;;;13.78;10.13;;;;;;;9.62;100.00;99791.89;1760550;81;25630;-72
2021/12/31 11:21:03;;;;;;;12.28;9.10;;;;;;;9.63;100.00;99786.75;1762230;81;26156;-73
2021/12/31 11:23:31;;;;;;;;;;;;;;;9.64;100.00;99795.09;1764809;81;25574;-73
2021/12/31 11:26:05;;;;;;;14.75;10.70;;;;;;;9.65;100.00;99782.64;1762199;80;27893;-72
2021/12/31 11:28:35;;;;;;;12.13;10.23;;;;;;;9.64;100.00;99783.73;1734108;81;25815;-71
2021/12/31 11:31:25;;;;;;;14.10;11.53;;;;;;;9.66;100.00;99773.97;1762137;80;25820;-71